3K Masculino – Corrida Virtual Cortuba

[/vc_column_text][/vc_column][/vc_row]

Resultado 3K Masculino

Colocação GeralNomeColocação Faixa EtáriaNúmeroSexoIdadeTempo BrutoTempo LiquidoEquipeCidadeRitmo Tempo LiquidoVelocidade Tempo LiquidoDescrição ModalidadeDescrição Faixa EtáriaCertificado
1MARCOS NUNES-304M3800:12:1900:12:19RUNNING FRIENDSTUBARÃO00:04:0614,6103KMasculino de 35 até 39 anosImprimir
2MAICON GONÇALVES BORTOLATO-293M1800:12:4500:12:45TREZE RUNNERSTREZE DE MAIO00:04:1514,1203KMasculino de 18 até 19 anosImprimir
3FABRICIO BRESSAN LONGO-151M3000:12:5000:12:50TREZE RUNNERSTREZE DE MAIO00:04:1714,0303KMasculino de 30 até 34 anosImprimir
4JOÃO VICTOR RIBEIRO PORTO NOVAIS-226M2100:13:4200:13:42SOB PRESSÃOJoinville00:04:3413,1403KMasculino de 20 até 24 anosImprimir
5DIOGO RODRIGUES-112M1900:15:0700:15:07SOB PRESSÃOJoinville00:05:0211,9103KMasculino de 18 até 19 anosImprimir
6NATHAN FERNANDES CANTO1336M1600:15:1400:15:14RUNNING FRIENDSTUBARÃO00:05:0511,8203KMasculino de 16 até 17 anosImprimir
7RODINEI NIERO SALVAN1370M3200:15:3000:15:30F3 ASSESSORIABraço do Norte00:05:1011,6103KMasculino de 30 até 34 anosImprimir
8DDIER SOUZA1104M2700:15:3400:15:34SAUDE FORMA ACADEMIA THIAGO ROCHABRAÇO DO NORTE00:05:1111,5603KMasculino de 25 até 29 anosImprimir
9LUIZ CARLOS ANTÔNIO POLICARPI1286M1500:15:3400:15:34X RUNNERSNOVA VENEZA00:05:1111,5603KMasculino de 0 até 15 anos (Idade Inválida)Imprimir
10VANDERLEI ANDRE CARDOSO1423M5000:15:4300:15:43TESBA RUNNERSPORTO ALEGRE00:05:1411,4503KMasculino de 50 até 54 anosImprimir
11JOSÉ PEDRO SILVEIRA NETO2235M1700:15:5800:15:58RUNNING FRIENDSTUBARÃO00:05:1911,2703KMasculino de 16 até 17 anosImprimir
12MARIO ROBERTO ANGIOLETTI1317M4100:17:1700:17:17SOB PRESSÃOJoinville00:05:4610,4103KMasculino de 40 até 44 anosImprimir
13PAULO HENRIQUE VILAIN1348M4900:18:2900:18:29FAMILY RUNNERSCRICIÚMA00:06:109,7403KMasculino de 45 até 49 anosImprimir
14ROGERIO HEIDEMANN2375M4000:20:0000:20:00CORREDORES BNBRAÇO DO NORTE00:06:409,0003KMasculino de 40 até 44 anosImprimir
15EDSON WIGGERS MARCELINO2122M3200:20:2600:20:26SOB PRESSÃOJoinville00:06:498,8103KMasculino de 30 até 34 anosImprimir
16FABIO CARARA DA SILVA2148M5300:20:4000:20:40TREZE RUNNERSTREZE DE MAIO00:06:538,7103KMasculino de 50 até 54 anosImprimir
17MARCELO WILSON DA SILVA VERAS1301M2200:20:5800:20:58SOB PRESSÃOJoinville00:06:598,5903KMasculino de 20 até 24 anosImprimir
18GIOVANE BRASIL3176M5000:21:0700:21:07RUNNING FRIENDSTUBARÃO00:07:028,5203KMasculino de 50 até 54 anosImprimir
19JOSE MANOEL SERAFIM SALVADOR2234M2300:21:2700:21:27TESBA RUNNERSTUBARÃO00:07:098,3903KMasculino de 20 até 24 anosImprimir
20TIAGO CELSO MULLER GARCIA3416M2100:21:3800:21:38ON EVENTOSTUBARÃO00:07:138,3203KMasculino de 20 até 24 anosImprimir
21DANIEL BORBA499M2200:22:0000:22:00SAUDE FORMA ACADEMIA THIAGO ROCHABRAÇO DO NORTE00:07:208,1803KMasculino de 20 até 24 anosImprimir
22TÚLIO SCHLICKMANNN2420M2800:22:3500:22:35BN RUNNERSBRAÇO DO NORTE00:07:327,9703KMasculino de 25 até 29 anosImprimir
23JAIR FARIAS JUNIOR1215M1900:22:4000:22:40TREZE RUNNERSTREZE DE MAIO00:07:337,9403KMasculino de 18 até 19 anosImprimir
24MATHEUS RODRIGUES FERNANDES2321M1500:28:0800:28:08RUNNING FRIENDSTUBARÃO00:09:236,4003KMasculino de 0 até 15 anos (Idade Inválida)Imprimir
pt_BRPortuguese
pt_BRPortuguese